sensor_id;sensor_type;location;lat;lon;timestamp;P1;durP1;ratioP1;P2;durP2;ratioP2
3225;SDS011;1625;49.884;8.666;2023-02-05T02:04:44;8.30;;;6.37;;
3225;SDS011;1625;49.884;8.666;2023-02-05T02:07:13;7.70;;;6.73;;
3225;SDS011;1625;49.884;8.666;2023-02-05T02:09:40;7.97;;;6.53;;
3225;SDS011;1625;49.884;8.666;2023-02-05T02:12:08;7.90;;;6.53;;
3225;SDS011;1625;49.884;8.666;2023-02-05T02:14:36;9.97;;;7.20;;
3225;SDS011;1625;49.884;8.666;2023-02-05T02:17:06;8.90;;;6.90;;
3225;SDS011;1625;49.884;8.666;2023-02-05T02:19:39;9.47;;;7.43;;
3225;SDS011;1625;49.884;8.666;2023-02-05T02:22:19;11.70;;;6.57;;
3225;SDS011;1625;49.884;8.666;2023-02-05T02:31:09;7.60;;;6.90;;
3225;SDS011;1625;49.884;8.666;2023-02-05T02:33:44;8.50;;;6.80;;
3225;SDS011;1625;49.884;8.666;2023-02-05T02:46:55;10.03;;;8.13;;
3225;SDS011;1625;49.884;8.666;2023-02-05T02:49:25;7.57;;;6.80;;
3225;SDS011;1625;49.884;8.666;2023-02-05T02:52:04;9.30;;;7.43;;
3225;SDS011;1625;49.884;8.666;2023-02-05T02:54:33;8.60;;;7.00;;
3225;SDS011;1625;49.884;8.666;2023-02-05T02:57:02;8.97;;;7.67;;
3225;SDS011;1625;49.884;8.666;2023-02-05T02:59:32;10.80;;;6.80;;
3225;SDS011;1625;49.884;8.666;2023-02-05T03:02:02;8.60;;;6.27;;
3225;SDS011;1625;49.884;8.666;2023-02-05T03:09:47;8.63;;;6.63;;
3225;SDS011;1625;49.884;8.666;2023-02-05T03:12:20;7.37;;;5.97;;
3225;SDS011;1625;49.884;8.666;2023-02-05T03:14:45;9.97;;;5.90;;
3225;SDS011;1625;49.884;8.666;2023-02-05T03:17:11;7.90;;;7.10;;
3225;SDS011;1625;49.884;8.666;2023-02-05T03:19:43;7.47;;;6.73;;
3225;SDS011;1625;49.884;8.666;2023-02-05T03:22:09;7.77;;;6.83;;
3225;SDS011;1625;49.884;8.666;2023-02-05T03:24:35;7.57;;;6.37;;
3225;SDS011;1625;49.884;8.666;2023-02-05T03:27:02;7.70;;;6.30;;
3225;SDS011;1625;49.884;8.666;2023-02-05T03:29:31;7.30;;;6.70;;
3225;SDS011;1625;49.884;8.666;2023-02-05T03:32:16;11.47;;;7.37;;
3225;SDS011;1625;49.884;8.666;2023-02-05T03:40:45;7.37;;;6.63;;
3225;SDS011;1625;49.884;8.666;2023-02-05T03:43:17;9.90;;;6.70;;
3225;SDS011;1625;49.884;8.666;2023-02-05T03:45:55;7.60;;;6.17;;
3225;SDS011;1625;49.884;8.666;2023-02-05T03:48:37;7.00;;;6.40;;
3225;SDS011;1625;49.884;8.666;2023-02-05T03:51:16;9.10;;;6.53;;
3225;SDS011;1625;49.884;8.666;2023-02-05T03:54:08;7.30;;;6.30;;
3225;SDS011;1625;49.884;8.666;2023-02-05T03:56:44;7.50;;;6.63;;
3225;SDS011;1625;49.884;8.666;2023-02-05T03:59:11;7.20;;;6.50;;
3225;SDS011;1625;49.884;8.666;2023-02-05T04:01:40;6.97;;;5.93;;
3225;SDS011;1625;49.884;8.666;2023-02-05T04:04:07;6.20;;;5.60;;
3225;SDS011;1625;49.884;8.666;2023-02-05T04:06:32;7.10;;;5.47;;
3225;SDS011;1625;49.884;8.666;2023-02-05T04:08:58;8.13;;;6.43;;
3225;SDS011;1625;49.884;8.666;2023-02-05T04:11:23;6.73;;;5.63;;
3225;SDS011;1625;49.884;8.666;2023-02-05T04:13:49;6.77;;;6.03;;
3225;SDS011;1625;49.884;8.666;2023-02-05T04:16:14;7.77;;;7.07;;
3225;SDS011;1625;49.884;8.666;2023-02-05T04:18:40;7.80;;;6.87;;
3225;SDS011;1625;49.884;8.666;2023-02-05T04:21:05;8.90;;;6.60;;
3225;SDS011;1625;49.884;8.666;2023-02-05T04:23:31;7.53;;;6.73;;
3225;SDS011;1625;49.884;8.666;2023-02-05T04:25:57;8.97;;;8.07;;
3225;SDS011;1625;49.884;8.666;2023-02-05T04:28:22;9.17;;;8.23;;
3225;SDS011;1625;49.884;8.666;2023-02-05T04:30:48;11.80;;;9.80;;
3225;SDS011;1625;49.884;8.666;2023-02-05T04:33:13;9.83;;;8.80;;
3225;SDS011;1625;49.884;8.666;2023-02-05T04:35:39;10.50;;;8.50;;
3225;SDS011;1625;49.884;8.666;2023-02-05T04:38:04;10.87;;;8.50;;
3225;SDS011;1625;49.884;8.666;2023-02-05T04:40:30;10.13;;;8.40;;
3225;SDS011;1625;49.884;8.666;2023-02-05T04:42:55;10.70;;;8.67;;
3225;SDS011;1625;49.884;8.666;2023-02-05T04:45:21;9.90;;;7.50;;
3225;SDS011;1625;49.884;8.666;2023-02-05T04:47:47;7.50;;;6.70;;
3225;SDS011;1625;49.884;8.666;2023-02-05T04:50:12;8.97;;;8.10;;
3225;SDS011;1625;49.884;8.666;2023-02-05T04:52:38;10.50;;;8.57;;
3225;SDS011;1625;49.884;8.666;2023-02-05T04:55:04;9.23;;;7.57;;
3225;SDS011;1625;49.884;8.666;2023-02-05T04:57:30;11.10;;;8.57;;
3225;SDS011;1625;49.884;8.666;2023-02-05T04:59:55;9.60;;;8.60;;
3225;SDS011;1625;49.884;8.666;2023-02-05T05:02:21;10.97;;;7.97;;
3225;SDS011;1625;49.884;8.666;2023-02-05T05:04:47;7.57;;;6.93;;
3225;SDS011;1625;49.884;8.666;2023-02-05T05:07:12;9.93;;;8.90;;
3225;SDS011;1625;49.884;8.666;2023-02-05T05:09:39;8.97;;;7.63;;
3225;SDS011;1625;49.884;8.666;2023-02-05T05:12:05;8.70;;;7.80;;
3225;SDS011;1625;49.884;8.666;2023-02-05T05:14:30;10.73;;;8.70;;
3225;SDS011;1625;49.884;8.666;2023-02-05T05:16:56;8.50;;;7.70;;
3225;SDS011;1625;49.884;8.666;2023-02-05T05:19:21;8.87;;;7.80;;
3225;SDS011;1625;49.884;8.666;2023-02-05T05:21:47;8.20;;;7.40;;
3225;SDS011;1625;49.884;8.666;2023-02-05T05:24:12;11.00;;;7.03;;
3225;SDS011;1625;49.884;8.666;2023-02-05T05:26:38;10.00;;;7.57;;
3225;SDS011;1625;49.884;8.666;2023-02-05T05:29:08;10.80;;;7.47;;
3225;SDS011;1625;49.884;8.666;2023-02-05T05:31:35;11.60;;;8.63;;
3225;SDS011;1625;49.884;8.666;2023-02-05T05:34:00;12.13;;;7.60;;
3225;SDS011;1625;49.884;8.666;2023-02-05T05:36:26;8.37;;;7.47;;
3225;SDS011;1625;49.884;8.666;2023-02-05T05:38:51;12.40;;;7.67;;
3225;SDS011;1625;49.884;8.666;2023-02-05T05:41:21;11.50;;;7.80;;
3225;SDS011;1625;49.884;8.666;2023-02-05T05:44:06;10.57;;;7.80;;
3225;SDS011;1625;49.884;8.666;2023-02-05T05:46:32;11.00;;;7.53;;
3225;SDS011;1625;49.884;8.666;2023-02-05T05:49:00;8.80;;;7.90;;
3225;SDS011;1625;49.884;8.666;2023-02-05T05:51:27;10.17;;;7.70;;
3225;SDS011;1625;49.884;8.666;2023-02-05T05:53:54;9.70;;;8.80;;
3225;SDS011;1625;49.884;8.666;2023-02-05T05:56:21;12.43;;;8.33;;
3225;SDS011;1625;49.884;8.666;2023-02-05T05:58:47;11.80;;;8.00;;
3225;SDS011;1625;49.884;8.666;2023-02-05T06:01:14;9.33;;;8.30;;
3225;SDS011;1625;49.884;8.666;2023-02-05T06:03:41;13.50;;;8.73;;
3225;SDS011;1625;49.884;8.666;2023-02-05T06:06:07;8.77;;;7.87;;
3225;SDS011;1625;49.884;8.666;2023-02-05T06:08:34;10.63;;;7.93;;
3225;SDS011;1625;49.884;8.666;2023-02-05T06:11:00;9.60;;;8.10;;
3225;SDS011;1625;49.884;8.666;2023-02-05T06:13:25;9.03;;;7.50;;
3225;SDS011;1625;49.884;8.666;2023-02-05T06:15:51;10.40;;;8.50;;
3225;SDS011;1625;49.884;8.666;2023-02-05T06:18:18;8.10;;;7.30;;
3225;SDS011;1625;49.884;8.666;2023-02-05T06:20:44;8.50;;;7.53;;
3225;SDS011;1625;49.884;8.666;2023-02-05T06:23:09;9.90;;;8.60;;
3225;SDS011;1625;49.884;8.666;2023-02-05T06:25:35;9.90;;;7.17;;
3225;SDS011;1625;49.884;8.666;2023-02-05T06:28:01;7.70;;;7.00;;
3225;SDS011;1625;49.884;8.666;2023-02-05T06:30:26;9.93;;;8.27;;
3225;SDS011;1625;49.884;8.666;2023-02-05T06:32:52;10.00;;;8.10;;
3225;SDS011;1625;49.884;8.666;2023-02-05T06:35:18;9.40;;;8.37;;
3225;SDS011;1625;49.884;8.666;2023-02-05T06:37:43;8.80;;;7.87;;
3225;SDS011;1625;49.884;8.666;2023-02-05T06:40:09;9.00;;;8.10;;
3225;SDS011;1625;49.884;8.666;2023-02-05T06:42:35;10.10;;;7.40;;
3225;SDS011;1625;49.884;8.666;2023-02-05T06:45:02;8.23;;;6.93;;
3225;SDS011;1625;49.884;8.666;2023-02-05T06:47:28;7.80;;;7.10;;
3225;SDS011;1625;49.884;8.666;2023-02-05T06:49:54;12.57;;;7.63;;
3225;SDS011;1625;49.884;8.666;2023-02-05T06:52:19;8.60;;;7.67;;
3225;SDS011;1625;49.884;8.666;2023-02-05T06:54:46;8.40;;;7.43;;
3225;SDS011;1625;49.884;8.666;2023-02-05T06:57:11;7.30;;;6.50;;
3225;SDS011;1625;49.884;8.666;2023-02-05T06:59:37;9.60;;;7.60;;
3225;SDS011;1625;49.884;8.666;2023-02-05T07:02:02;9.10;;;7.07;;
3225;SDS011;1625;49.884;8.666;2023-02-05T07:04:28;8.10;;;7.00;;
3225;SDS011;1625;49.884;8.666;2023-02-05T07:06:58;8.10;;;6.93;;
3225;SDS011;1625;49.884;8.666;2023-02-05T07:09:24;9.37;;;6.73;;
3225;SDS011;1625;49.884;8.666;2023-02-05T07:11:50;7.53;;;6.47;;
3225;SDS011;1625;49.884;8.666;2023-02-05T07:14:15;8.33;;;6.80;;
3225;SDS011;1625;49.884;8.666;2023-02-05T07:16:41;7.90;;;6.37;;
3225;SDS011;1625;49.884;8.666;2023-02-05T07:19:08;9.47;;;6.20;;
3225;SDS011;1625;49.884;8.666;2023-02-05T07:21:34;7.90;;;6.63;;
3225;SDS011;1625;49.884;8.666;2023-02-05T07:24:00;7.67;;;6.87;;
3225;SDS011;1625;49.884;8.666;2023-02-05T07:26:25;10.07;;;9.07;;
3225;SDS011;1625;49.884;8.666;2023-02-05T07:28:51;7.40;;;6.70;;
3225;SDS011;1625;49.884;8.666;2023-02-05T07:31:17;8.73;;;7.53;;
3225;SDS011;1625;49.884;8.666;2023-02-05T07:33:44;8.60;;;6.80;;
3225;SDS011;1625;49.884;8.666;2023-02-05T07:36:16;7.23;;;6.53;;
3225;SDS011;1625;49.884;8.666;2023-02-05T07:38:48;8.73;;;6.87;;
3225;SDS011;1625;49.884;8.666;2023-02-05T07:41:14;7.83;;;6.37;;
3225;SDS011;1625;49.884;8.666;2023-02-05T07:43:41;7.60;;;6.77;;
3225;SDS011;1625;49.884;8.666;2023-02-05T07:49:33;9.70;;;6.90;;
3225;SDS011;1625;49.884;8.666;2023-02-05T07:52:23;8.33;;;7.40;;
3225;SDS011;1625;49.884;8.666;2023-02-05T07:54:51;9.97;;;7.63;;
3225;SDS011;1625;49.884;8.666;2023-02-05T07:57:20;9.83;;;7.43;;
3225;SDS011;1625;49.884;8.666;2023-02-05T07:59:45;7.83;;;7.03;;
3225;SDS011;1625;49.884;8.666;2023-02-05T08:02:11;10.23;;;7.37;;
3225;SDS011;1625;49.884;8.666;2023-02-05T08:04:36;8.53;;;7.70;;
3225;SDS011;1625;49.884;8.666;2023-02-05T08:07:02;7.17;;;6.47;;
3225;SDS011;1625;49.884;8.666;2023-02-05T08:09:27;7.70;;;6.60;;
3225;SDS011;1625;49.884;8.666;2023-02-05T08:11:53;10.43;;;6.63;;
3225;SDS011;1625;49.884;8.666;2023-02-05T08:14:33;12.93;;;6.80;;
3225;SDS011;1625;49.884;8.666;2023-02-05T08:16:59;10.57;;;7.00;;
3225;SDS011;1625;49.884;8.666;2023-02-05T08:19:26;8.63;;;7.13;;
3225;SDS011;1625;49.884;8.666;2023-02-05T08:21:52;7.87;;;7.07;;
3225;SDS011;1625;49.884;8.666;2023-02-05T08:24:17;16.00;;;7.60;;
3225;SDS011;1625;49.884;8.666;2023-02-05T08:26:43;8.63;;;7.77;;
3225;SDS011;1625;49.884;8.666;2023-02-05T08:29:09;8.90;;;7.50;;
3225;SDS011;1625;49.884;8.666;2023-02-05T08:31:35;8.17;;;7.10;;
3225;SDS011;1625;49.884;8.666;2023-02-05T08:34:01;9.50;;;8.07;;
3225;SDS011;1625;49.884;8.666;2023-02-05T08:36:27;8.33;;;7.03;;
3225;SDS011;1625;49.884;8.666;2023-02-05T08:39:06;9.30;;;7.30;;
3225;SDS011;1625;49.884;8.666;2023-02-05T08:41:32;9.17;;;7.30;;
3225;SDS011;1625;49.884;8.666;2023-02-05T08:44:28;9.20;;;7.23;;
3225;SDS011;1625;49.884;8.666;2023-02-05T08:47:17;12.97;;;7.60;;
3225;SDS011;1625;49.884;8.666;2023-02-05T08:50:18;8.23;;;6.90;;
3225;SDS011;1625;49.884;8.666;2023-02-05T08:52:59;10.33;;;6.97;;
3225;SDS011;1625;49.884;8.666;2023-02-05T08:56:04;8.87;;;7.67;;
3225;SDS011;1625;49.884;8.666;2023-02-05T08:58:30;9.13;;;8.23;;
3225;SDS011;1625;49.884;8.666;2023-02-05T09:01:14;10.73;;;9.10;;
3225;SDS011;1625;49.884;8.666;2023-02-05T09:03:41;10.27;;;8.97;;
3225;SDS011;1625;49.884;8.666;2023-02-05T09:06:16;9.60;;;8.03;;
3225;SDS011;1625;49.884;8.666;2023-02-05T09:16:09;8.67;;;7.77;;
3225;SDS011;1625;49.884;8.666;2023-02-05T09:19:37;11.03;;;8.20;;
3225;SDS011;1625;49.884;8.666;2023-02-05T09:29:06;11.90;;;9.30;;
3225;SDS011;1625;49.884;8.666;2023-02-05T09:35:45;12.00;;;8.97;;
3225;SDS011;1625;49.884;8.666;2023-02-05T10:10:25;11.57;;;9.53;;
3225;SDS011;1625;49.884;8.666;2023-02-05T10:51:00;18.53;;;13.97;;
3225;SDS011;1625;49.884;8.666;2023-02-05T11:04:12;18.47;;;13.17;;
3225;SDS011;1625;49.884;8.666;2023-02-05T11:31:20;15.00;;;13.50;;
3225;SDS011;1625;49.884;8.666;2023-02-05T11:44:36;16.00;;;14.43;;
3225;SDS011;1625;49.884;8.666;2023-02-05T11:47:12;16.87;;;15.27;;
3225;SDS011;1625;49.884;8.666;2023-02-05T11:50:32;16.67;;;14.47;;
3225;SDS011;1625;49.884;8.666;2023-02-05T11:53:23;16.60;;;14.90;;
3225;SDS011;1625;49.884;8.666;2023-02-05T11:55:56;16.50;;;14.90;;
3225;SDS011;1625;49.884;8.666;2023-02-05T11:58:29;17.47;;;15.60;;
3225;SDS011;1625;49.884;8.666;2023-02-05T12:01:05;14.83;;;13.30;;
3225;SDS011;1625;49.884;8.666;2023-02-05T12:03:56;17.07;;;14.23;;
3225;SDS011;1625;49.884;8.666;2023-02-05T12:06:25;16.00;;;14.40;;
3225;SDS011;1625;49.884;8.666;2023-02-05T12:08:57;15.13;;;13.63;;
3225;SDS011;1625;49.884;8.666;2023-02-05T12:11:33;15.27;;;13.67;;
3225;SDS011;1625;49.884;8.666;2023-02-05T12:34:21;16.70;;;13.10;;
3225;SDS011;1625;49.884;8.666;2023-02-05T12:37:02;13.63;;;12.30;;
3225;SDS011;1625;49.884;8.666;2023-02-05T12:40:02;16.27;;;13.00;;
3225;SDS011;1625;49.884;8.666;2023-02-05T12:45:28;15.33;;;13.93;;
3225;SDS011;1625;49.884;8.666;2023-02-05T12:51:14;13.30;;;12.00;;
3225;SDS011;1625;49.884;8.666;2023-02-05T12:56:44;18.67;;;13.13;;
3225;SDS011;1625;49.884;8.666;2023-02-05T13:04:46;15.47;;;12.73;;
3225;SDS011;1625;49.884;8.666;2023-02-05T13:09:53;14.23;;;12.87;;
3225;SDS011;1625;49.884;8.666;2023-02-05T13:12:25;12.00;;;10.90;;
3225;SDS011;1625;49.884;8.666;2023-02-05T13:14:55;12.50;;;10.70;;
3225;SDS011;1625;49.884;8.666;2023-02-05T13:17:52;12.50;;;10.53;;
3225;SDS011;1625;49.884;8.666;2023-02-05T13:23:46;12.00;;;10.77;;
3225;SDS011;1625;49.884;8.666;2023-02-05T13:26:31;12.40;;;11.20;;
3225;SDS011;1625;49.884;8.666;2023-02-05T13:29:26;11.40;;;10.20;;
3225;SDS011;1625;49.884;8.666;2023-02-05T13:32:00;11.00;;;8.57;;
3225;SDS011;1625;49.884;8.666;2023-02-05T13:46:48;9.93;;;8.93;;
3225;SDS011;1625;49.884;8.666;2023-02-05T13:49:49;9.67;;;8.10;;
3225;SDS011;1625;49.884;8.666;2023-02-05T13:56:08;8.47;;;7.67;;
3225;SDS011;1625;49.884;8.666;2023-02-05T13:58:49;8.67;;;5.80;;
3225;SDS011;1625;49.884;8.666;2023-02-05T14:01:23;7.00;;;6.30;;
3225;SDS011;1625;49.884;8.666;2023-02-05T14:04:04;7.90;;;7.10;;
3225;SDS011;1625;49.884;8.666;2023-02-05T14:07:00;7.50;;;6.83;;
3225;SDS011;1625;49.884;8.666;2023-02-05T14:09:44;8.20;;;7.50;;
3225;SDS011;1625;49.884;8.666;2023-02-05T14:12:21;7.30;;;6.70;;
3225;SDS011;1625;49.884;8.666;2023-02-05T14:22:53;8.43;;;6.43;;
3225;SDS011;1625;49.884;8.666;2023-02-05T14:30:49;6.37;;;5.77;;
3225;SDS011;1625;49.884;8.666;2023-02-05T14:36:36;6.77;;;6.10;;
3225;SDS011;1625;49.884;8.666;2023-02-05T14:38:51;6.80;;;6.20;;
3225;SDS011;1625;49.884;8.666;2023-02-05T14:41:27;7.67;;;6.97;;
3225;SDS011;1625;49.884;8.666;2023-02-05T14:44:16;7.30;;;6.67;;
3225;SDS011;1625;49.884;8.666;2023-02-05T14:49:25;7.77;;;7.07;;
3225;SDS011;1625;49.884;8.666;2023-02-05T14:51:55;8.07;;;6.90;;
3225;SDS011;1625;49.884;8.666;2023-02-05T14:54:27;7.53;;;6.83;;
3225;SDS011;1625;49.884;8.666;2023-02-05T14:59:55;8.00;;;7.30;;
3225;SDS011;1625;49.884;8.666;2023-02-05T15:02:46;8.00;;;7.30;;
3225;SDS011;1625;49.884;8.666;2023-02-05T15:17:36;8.00;;;6.80;;
3225;SDS011;1625;49.884;8.666;2023-02-05T15:20:50;6.20;;;5.60;;
3225;SDS011;1625;49.884;8.666;2023-02-05T15:23:22;7.10;;;6.50;;
3225;SDS011;1625;49.884;8.666;2023-02-05T15:26:04;7.13;;;6.43;;
3225;SDS011;1625;49.884;8.666;2023-02-05T15:28:39;8.20;;;7.50;;
3225;SDS011;1625;49.884;8.666;2023-02-05T15:31:18;8.00;;;7.20;;
3225;SDS011;1625;49.884;8.666;2023-02-05T15:33:53;8.27;;;7.40;;
3225;SDS011;1625;49.884;8.666;2023-02-05T15:36:39;7.93;;;7.23;;
3225;SDS011;1625;49.884;8.666;2023-02-05T15:39:12;7.73;;;7.03;;
3225;SDS011;1625;49.884;8.666;2023-02-05T15:42:02;7.70;;;6.90;;
3225;SDS011;1625;49.884;8.666;2023-02-05T15:44:31;8.80;;;7.03;;
3225;SDS011;1625;49.884;8.666;2023-02-05T15:46:59;8.37;;;7.50;;
3225;SDS011;1625;49.884;8.666;2023-02-05T15:49:29;8.90;;;8.00;;
3225;SDS011;1625;49.884;8.666;2023-02-05T15:51:58;9.07;;;8.27;;
3225;SDS011;1625;49.884;8.666;2023-02-05T15:54:24;9.33;;;8.40;;
3225;SDS011;1625;49.884;8.666;2023-02-05T15:56:50;9.60;;;8.70;;
3225;SDS011;1625;49.884;8.666;2023-02-05T15:59:21;9.13;;;8.33;;
3225;SDS011;1625;49.884;8.666;2023-02-05T16:02:01;10.00;;;8.80;;
3225;SDS011;1625;49.884;8.666;2023-02-05T16:04:31;9.40;;;8.57;;
3225;SDS011;1625;49.884;8.666;2023-02-05T16:06:58;9.40;;;8.60;;
3225;SDS011;1625;49.884;8.666;2023-02-05T16:09:25;9.77;;;8.77;;
3225;SDS011;1625;49.884;8.666;2023-02-05T16:11:52;9.83;;;8.83;;
3225;SDS011;1625;49.884;8.666;2023-02-05T16:14:20;9.60;;;8.77;;
3225;SDS011;1625;49.884;8.666;2023-02-05T16:17:01;9.37;;;8.57;;
3225;SDS011;1625;49.884;8.666;2023-02-05T16:19:53;8.37;;;7.57;;
3225;SDS011;1625;49.884;8.666;2023-02-05T16:22:51;8.83;;;8.13;;
3225;SDS011;1625;49.884;8.666;2023-02-05T16:40:37;9.07;;;8.27;;
3225;SDS011;1625;49.884;8.666;2023-02-05T17:56:27;10.73;;;9.70;;
3225;SDS011;1625;49.884;8.666;2023-02-05T17:58:52;12.63;;;11.50;;
3225;SDS011;1625;49.884;8.666;2023-02-05T18:01:20;11.27;;;10.17;;
3225;SDS011;1625;49.884;8.666;2023-02-05T18:03:46;10.80;;;9.80;;
3225;SDS011;1625;49.884;8.666;2023-02-05T18:06:12;11.80;;;10.80;;
3225;SDS011;1625;49.884;8.666;2023-02-05T18:08:43;12.37;;;11.27;;
3225;SDS011;1625;49.884;8.666;2023-02-05T18:11:11;13.07;;;10.70;;
3225;SDS011;1625;49.884;8.666;2023-02-05T18:13:37;11.77;;;10.73;;
3225;SDS011;1625;49.884;8.666;2023-02-05T18:16:02;12.17;;;11.03;;
3225;SDS011;1625;49.884;8.666;2023-02-05T18:18:32;10.90;;;9.80;;
3225;SDS011;1625;49.884;8.666;2023-02-05T18:20:59;11.03;;;9.93;;
3225;SDS011;1625;49.884;8.666;2023-02-05T18:23:25;10.90;;;9.90;;
3225;SDS011;1625;49.884;8.666;2023-02-05T18:25:53;9.93;;;9.03;;
3225;SDS011;1625;49.884;8.666;2023-02-05T18:28:19;9.60;;;8.20;;
3225;SDS011;1625;49.884;8.666;2023-02-05T18:30:44;9.97;;;9.00;;
3225;SDS011;1625;49.884;8.666;2023-02-05T18:33:10;10.33;;;9.33;;
3225;SDS011;1625;49.884;8.666;2023-02-05T18:35:45;11.40;;;10.40;;
3225;SDS011;1625;49.884;8.666;2023-02-05T18:41:49;10.57;;;9.57;;
3225;SDS011;1625;49.884;8.666;2023-02-05T18:44:58;8.80;;;8.00;;
3225;SDS011;1625;49.884;8.666;2023-02-05T18:47:24;10.00;;;9.10;;
3225;SDS011;1625;49.884;8.666;2023-02-05T18:49:51;11.07;;;9.97;;
3225;SDS011;1625;49.884;8.666;2023-02-05T18:52:17;10.00;;;9.10;;
3225;SDS011;1625;49.884;8.666;2023-02-05T18:54:47;10.63;;;9.50;;
3225;SDS011;1625;49.884;8.666;2023-02-05T19:23:51;9.77;;;8.80;;
3225;SDS011;1625;49.884;8.666;2023-02-05T21:17:31;10.27;;;9.30;;
3225;SDS011;1625;49.884;8.666;2023-02-05T21:19:56;9.27;;;8.47;;
3225;SDS011;1625;49.884;8.666;2023-02-05T21:22:23;9.80;;;8.90;;
3225;SDS011;1625;49.884;8.666;2023-02-05T21:24:49;10.13;;;9.03;;
3225;SDS011;1625;49.884;8.666;2023-02-05T21:27:14;9.20;;;8.40;;
3225;SDS011;1625;49.884;8.666;2023-02-05T21:29:41;10.00;;;9.13;;
3225;SDS011;1625;49.884;8.666;2023-02-05T21:32:07;9.93;;;8.93;;
3225;SDS011;1625;49.884;8.666;2023-02-05T21:34:33;10.93;;;9.93;;
3225;SDS011;1625;49.884;8.666;2023-02-05T21:36:58;10.03;;;9.03;;
3225;SDS011;1625;49.884;8.666;2023-02-05T21:39:24;10.07;;;9.27;;
3225;SDS011;1625;49.884;8.666;2023-02-05T21:41:49;9.70;;;8.80;;
3225;SDS011;1625;49.884;8.666;2023-02-05T21:44:15;9.77;;;8.87;;
3225;SDS011;1625;49.884;8.666;2023-02-05T21:46:41;10.27;;;9.37;;
3225;SDS011;1625;49.884;8.666;2023-02-05T21:49:06;9.90;;;9.00;;
3225;SDS011;1625;49.884;8.666;2023-02-05T21:51:33;11.17;;;10.07;;
3225;SDS011;1625;49.884;8.666;2023-02-05T21:54:00;10.40;;;9.50;;
3225;SDS011;1625;49.884;8.666;2023-02-05T21:56:33;11.30;;;10.20;;
3225;SDS011;1625;49.884;8.666;2023-02-05T21:59:00;11.43;;;10.23;;
3225;SDS011;1625;49.884;8.666;2023-02-05T22:01:30;11.97;;;10.77;;
3225;SDS011;1625;49.884;8.666;2023-02-05T22:03:58;10.00;;;9.10;;
3225;SDS011;1625;49.884;8.666;2023-02-05T22:06:29;9.40;;;8.50;;
3225;SDS011;1625;49.884;8.666;2023-02-05T22:08:56;9.60;;;8.67;;
3225;SDS011;1625;49.884;8.666;2023-02-05T22:11:22;10.13;;;9.17;;
3225;SDS011;1625;49.884;8.666;2023-02-05T22:13:49;9.73;;;8.70;;
3225;SDS011;1625;49.884;8.666;2023-02-05T22:16:16;10.10;;;9.10;;
3225;SDS011;1625;49.884;8.666;2023-02-05T22:18:44;10.33;;;9.33;;
3225;SDS011;1625;49.884;8.666;2023-02-05T22:21:11;11.20;;;10.10;;
3225;SDS011;1625;49.884;8.666;2023-02-05T22:23:42;11.03;;;9.93;;
3225;SDS011;1625;49.884;8.666;2023-02-05T22:26:09;10.60;;;9.60;;
3225;SDS011;1625;49.884;8.666;2023-02-05T22:28:35;11.10;;;10.00;;
3225;SDS011;1625;49.884;8.666;2023-02-05T22:31:01;11.80;;;10.70;;
3225;SDS011;1625;49.884;8.666;2023-02-05T22:33:29;12.70;;;11.70;;
3225;SDS011;1625;49.884;8.666;2023-02-05T22:35:55;12.90;;;11.70;;
3225;SDS011;1625;49.884;8.666;2023-02-05T22:38:21;12.40;;;11.10;;
3225;SDS011;1625;49.884;8.666;2023-02-05T22:40:47;12.17;;;11.07;;
3225;SDS011;1625;49.884;8.666;2023-02-05T22:43:12;12.80;;;11.57;;
3225;SDS011;1625;49.884;8.666;2023-02-05T22:45:38;12.40;;;11.20;;
3225;SDS011;1625;49.884;8.666;2023-02-05T22:48:03;12.23;;;11.13;;
3225;SDS011;1625;49.884;8.666;2023-02-05T22:50:34;12.20;;;11.10;;
3225;SDS011;1625;49.884;8.666;2023-02-05T22:53:04;12.13;;;10.93;;
3225;SDS011;1625;49.884;8.666;2023-02-05T22:55:29;12.53;;;11.40;;
3225;SDS011;1625;49.884;8.666;2023-02-05T22:57:55;12.10;;;11.00;;
3225;SDS011;1625;49.884;8.666;2023-02-05T23:00:20;12.87;;;11.67;;
3225;SDS011;1625;49.884;8.666;2023-02-05T23:02:49;13.77;;;12.53;;
3225;SDS011;1625;49.884;8.666;2023-02-05T23:05:14;14.30;;;12.77;;
3225;SDS011;1625;49.884;8.666;2023-02-05T23:07:40;13.30;;;12.00;;
3225;SDS011;1625;49.884;8.666;2023-02-05T23:10:12;13.73;;;12.53;;
3225;SDS011;1625;49.884;8.666;2023-02-05T23:12:38;13.60;;;12.30;;
3225;SDS011;1625;49.884;8.666;2023-02-05T23:15:03;13.57;;;12.27;;
3225;SDS011;1625;49.884;8.666;2023-02-05T23:17:29;13.60;;;12.30;;
3225;SDS011;1625;49.884;8.666;2023-02-05T23:19:55;11.40;;;10.30;;
3225;SDS011;1625;49.884;8.666;2023-02-05T23:22:20;12.73;;;11.53;;
3225;SDS011;1625;49.884;8.666;2023-02-05T23:24:46;12.70;;;11.43;;
3225;SDS011;1625;49.884;8.666;2023-02-05T23:27:11;12.27;;;11.00;;
3225;SDS011;1625;49.884;8.666;2023-02-05T23:29:37;12.57;;;11.37;;
3225;SDS011;1625;49.884;8.666;2023-02-05T23:32:02;13.20;;;11.00;;
3225;SDS011;1625;49.884;8.666;2023-02-05T23:34:28;12.77;;;11.50;;
3225;SDS011;1625;49.884;8.666;2023-02-05T23:36:54;12.17;;;11.07;;
3225;SDS011;1625;49.884;8.666;2023-02-05T23:39:19;12.30;;;11.10;;
3225;SDS011;1625;49.884;8.666;2023-02-05T23:41:45;12.03;;;10.90;;
3225;SDS011;1625;49.884;8.666;2023-02-05T23:44:14;11.70;;;10.60;;
3225;SDS011;1625;49.884;8.666;2023-02-05T23:46:44;12.23;;;11.13;;
3225;SDS011;1625;49.884;8.666;2023-02-05T23:49:11;11.30;;;10.20;;
3225;SDS011;1625;49.884;8.666;2023-02-05T23:51:37;12.57;;;10.90;;
3225;SDS011;1625;49.884;8.666;2023-02-05T23:54:03;11.77;;;10.67;;
3225;SDS011;1625;49.884;8.666;2023-02-05T23:56:29;11.93;;;10.80;;
3225;SDS011;1625;49.884;8.666;2023-02-05T23:58:55;11.43;;;10.43;;
